createdAt,value
2018-01-21T00:00:02.295Z,92.14
2018-01-21T00:01:02.289Z,92.18
2018-01-21T00:02:02.280Z,92.28
2018-01-21T00:03:02.266Z,92.94
2018-01-21T00:04:02.260Z,93.23
2018-01-21T00:05:02.244Z,93.37
2018-01-21T00:06:02.234Z,93.23
2018-01-21T00:07:02.223Z,92.80
2018-01-21T00:08:02.217Z,93.27
2018-01-21T00:09:02.207Z,94.32
2018-01-21T00:10:02.198Z,92.90
2018-01-21T00:11:02.188Z,92.99
2018-01-21T00:12:02.177Z,93.27
2018-01-21T00:13:02.169Z,94.13
2018-01-21T00:14:02.158Z,93.75
2018-01-21T00:15:02.148Z,93.56
2018-01-21T00:16:02.138Z,94.04
2018-01-21T00:17:02.124Z,93.84
2018-01-21T00:18:02.114Z,93.94
2018-01-21T00:19:02.104Z,93.27
2018-01-21T00:20:02.094Z,93.37
2018-01-21T00:21:02.083Z,93.46
2018-01-21T00:22:02.073Z,93.65
2018-01-21T00:23:02.062Z,93.27
2018-01-21T00:24:02.053Z,93.37
2018-01-21T00:25:02.047Z,93.08
2018-01-21T00:26:02.037Z,92.80
2018-01-21T00:27:02.033Z,92.61
2018-01-21T00:28:02.017Z,92.90
2018-01-21T00:29:02.007Z,92.80
2018-01-21T00:30:01.998Z,93.27
2018-01-21T00:31:01.986Z,93.65
2018-01-21T00:32:01.977Z,92.71
2018-01-21T00:33:01.964Z,94.04
2018-01-21T00:34:01.952Z,94.32
2018-01-21T00:35:01.942Z,93.84
2018-01-21T00:36:01.933Z,93.46
2018-01-21T00:37:01.922Z,93.41
2018-01-21T00:38:01.912Z,94.98
2018-01-21T00:39:01.902Z,94.70
2018-01-21T00:40:01.891Z,94.04
2018-01-21T00:41:01.887Z,93.37
2018-01-21T00:42:01.877Z,92.61
2018-01-21T00:43:01.865Z,93.27
2018-01-21T00:44:01.861Z,92.90
2018-01-21T00:45:01.846Z,94.42
2018-01-21T00:46:01.836Z,94.70
2018-01-21T00:47:01.825Z,93.18
2018-01-21T00:48:01.819Z,93.27
2018-01-21T00:49:01.802Z,92.99
2018-01-21T00:50:01.792Z,93.46
2018-01-21T00:51:01.781Z,93.56
2018-01-21T00:52:01.771Z,92.80
2018-01-21T00:53:01.765Z,92.04
2018-01-21T00:54:01.752Z,92.80
2018-01-21T00:55:01.741Z,92.42
2018-01-21T00:56:01.732Z,92.80
2018-01-21T00:57:01.725Z,92.80
2018-01-21T00:58:01.716Z,92.90
2018-01-21T00:59:01.704Z,92.99
2018-01-21T01:00:01.696Z,92.42
2018-01-21T01:01:01.685Z,92.33
2018-01-21T01:02:01.677Z,92.52
2018-01-21T01:03:01.665Z,93.27
2018-01-21T01:04:01.655Z,93.37
2018-01-21T01:05:01.641Z,93.27
2018-01-21T01:06:01.631Z,93.65
2018-01-21T01:07:01.620Z,92.99
2018-01-21T01:08:01.613Z,94.04
2018-01-21T01:09:01.605Z,93.37
2018-01-21T01:10:01.596Z,92.90
2018-01-21T01:11:01.584Z,92.04
2018-01-21T01:12:01.575Z,94.13
2018-01-21T01:13:01.562Z,94.23
2018-01-21T01:14:01.552Z,94.32
2018-01-21T01:15:01.541Z,93.75
2018-01-21T01:16:01.531Z,94.04
2018-01-21T01:17:01.521Z,94.51
2018-01-21T01:18:01.511Z,94.23
2018-01-21T01:19:01.501Z,93.27
2018-01-21T01:20:01.490Z,92.52
2018-01-21T01:21:01.486Z,92.71
2018-01-21T01:22:01.475Z,93.84
2018-01-21T01:23:01.464Z,94.23
2018-01-21T01:24:01.454Z,93.27
2018-01-21T01:25:01.445Z,93.75
2018-01-21T01:26:01.435Z,92.99
2018-01-21T01:27:01.424Z,93.27
2018-01-21T01:28:01.414Z,92.90
2018-01-21T01:29:01.401Z,93.37
2018-01-21T01:30:01.390Z,93.37
2018-01-21T01:31:01.378Z,94.23
2018-01-21T01:32:01.369Z,94.89
2018-01-21T01:33:01.361Z,94.13
2018-01-21T01:34:01.350Z,94.32
2018-01-21T01:35:01.340Z,94.04
2018-01-21T01:36:01.335Z,93.27
2018-01-21T01:37:01.323Z,92.90
2018-01-21T01:38:01.319Z,92.99
2018-01-21T01:39:01.302Z,92.80
2018-01-21T01:40:01.293Z,92.90
2018-01-21T01:41:01.282Z,92.99
2018-01-21T01:42:01.273Z,92.80
2018-01-21T01:43:01.263Z,92.80
2018-01-21T01:44:01.251Z,93.46
2018-01-21T01:45:01.241Z,92.99
2018-01-21T01:46:01.229Z,93.18
2018-01-21T01:47:01.216Z,93.08
2018-01-21T01:48:01.206Z,93.75
2018-01-21T01:49:01.197Z,93.75
2018-01-21T01:50:01.187Z,93.46
2018-01-21T01:51:01.175Z,93.08
2018-01-21T01:52:01.166Z,93.65
2018-01-21T01:53:01.160Z,93.08
2018-01-21T01:54:01.151Z,94.13
2018-01-21T01:55:01.141Z,93.18
2018-01-21T01:56:01.129Z,92.52
2018-01-21T01:57:01.120Z,93.46
2018-01-21T01:58:01.110Z,93.18
2018-01-21T01:59:01.098Z,92.61
2018-01-21T02:00:01.090Z,92.80
2018-01-21T02:01:01.075Z,93.84
2018-01-21T02:02:01.065Z,94.32
2018-01-21T02:03:01.054Z,93.65
2018-01-21T02:04:01.045Z,92.71
2018-01-21T02:05:01.034Z,92.52
2018-01-21T02:06:01.026Z,95.07
2018-01-21T02:07:01.013Z,94.13
2018-01-21T02:08:01.003Z,94.23
2018-01-21T02:09:00.997Z,94.13
2018-01-21T02:10:00.988Z,94.23
2018-01-21T02:11:01.025Z,94.70
2018-01-21T02:12:00.966Z,95.74
2018-01-21T02:13:00.952Z,95.17
2018-01-21T02:14:00.942Z,95.36
2018-01-21T02:15:00.930Z,94.79
2018-01-21T02:16:00.921Z,94.23
2018-01-21T02:17:00.915Z,94.04
2018-01-21T02:18:00.905Z,94.13
2018-01-21T02:19:00.894Z,94.32
2018-01-21T02:20:00.883Z,94.13
2018-01-21T02:21:00.874Z,95.17
2018-01-21T02:22:00.863Z,95.17
2018-01-21T02:23:00.854Z,95.07
2018-01-21T02:24:00.843Z,95.45
2018-01-21T02:25:00.827Z,95.65
2018-01-21T02:26:00.818Z,94.89
2018-01-21T02:27:00.808Z,95.45
2018-01-21T02:28:00.798Z,95.26
2018-01-21T02:29:00.786Z,95.17
2018-01-21T02:30:00.777Z,94.79
2018-01-21T02:31:00.766Z,94.70
2018-01-21T02:32:00.758Z,95.45
2018-01-21T02:33:00.750Z,94.42
2018-01-21T02:34:00.739Z,94.23
2018-01-21T02:35:00.728Z,93.08
2018-01-21T02:36:00.719Z,93.08
2018-01-21T02:37:00.708Z,93.18
2018-01-21T02:38:00.699Z,92.99
2018-01-21T02:39:00.686Z,93.27
2018-01-21T02:40:00.677Z,93.65
2018-01-21T02:41:00.663Z,92.90
2018-01-21T02:42:00.652Z,92.99
2018-01-21T02:43:00.667Z,93.27
2018-01-21T02:44:00.631Z,93.18
2018-01-21T02:45:00.619Z,93.80
2018-01-21T02:46:00.609Z,93.80
2018-01-21T02:47:00.598Z,92.57
2018-01-21T02:48:00.587Z,92.66
2018-01-21T02:49:00.582Z,92.66
2018-01-21T02:50:00.572Z,92.66
2018-01-21T02:51:00.560Z,92.38
2018-01-21T02:52:00.550Z,92.00
2018-01-21T02:53:00.540Z,91.71
2018-01-21T02:54:00.528Z,92.28
2018-01-21T02:55:00.517Z,92.19
2018-01-21T02:56:00.506Z,92.19
2018-01-21T02:57:00.493Z,91.71
2018-01-21T02:58:00.482Z,91.62
2018-01-21T02:59:00.471Z,91.14
2018-01-21T03:00:00.461Z,91.62
2018-01-21T03:01:00.449Z,90.91
2018-01-21T03:02:00.439Z,91.19
2018-01-21T03:03:00.428Z,90.81
2018-01-21T03:04:00.419Z,91.19
2018-01-21T03:05:00.413Z,91.00
2018-01-21T03:06:00.402Z,90.91
2018-01-21T03:07:00.390Z,90.62
2018-01-21T03:08:00.380Z,90.62
2018-01-21T03:09:00.370Z,91.09
2018-01-21T03:10:00.361Z,91.38
2018-01-21T03:11:00.348Z,91.28
2018-01-21T03:12:00.338Z,91.09
2018-01-21T03:13:00.326Z,91.57
2018-01-21T03:14:00.313Z,91.85
2018-01-21T03:15:00.303Z,91.66
2018-01-21T03:16:00.292Z,91.66
2018-01-21T03:17:00.287Z,91.76
2018-01-21T03:18:00.275Z,91.85
2018-01-21T03:19:00.264Z,92.04
2018-01-21T03:20:00.254Z,92.04
2018-01-21T03:21:00.239Z,92.71
2018-01-21T03:22:00.230Z,92.14
2018-01-21T03:23:00.218Z,92.80
2018-01-21T03:24:00.208Z,92.52
2018-01-21T03:25:00.199Z,92.99
2018-01-21T03:26:00.188Z,92.99
2018-01-21T03:27:00.176Z,93.27
2018-01-21T03:28:00.166Z,93.08
2018-01-21T03:29:00.161Z,92.90
2018-01-21T03:30:00.155Z,92.80
2018-01-21T03:31:00.157Z,92.90
2018-01-21T03:32:00.133Z,92.61
2018-01-21T03:33:00.119Z,92.14
2018-01-21T03:34:00.109Z,92.14
2018-01-21T03:35:00.098Z,92.23
2018-01-21T03:36:00.089Z,91.76
2018-01-21T03:37:00.073Z,91.76
2018-01-21T03:38:00.063Z,92.04
2018-01-21T03:39:00.054Z,92.52
2018-01-21T03:40:00.046Z,93.08
2018-01-21T03:41:00.035Z,93.37
2018-01-21T03:42:00.024Z,93.56
2018-01-21T03:43:00.013Z,93.27
2018-01-21T03:43:59.999Z,93.08
2018-01-21T03:44:59.993Z,92.71
2018-01-21T03:45:59.988Z,92.80
2018-01-21T03:46:59.972Z,92.04
2018-01-21T03:47:59.969Z,91.57
2018-01-21T03:48:59.951Z,91.66
2018-01-21T03:49:59.941Z,92.14
2018-01-21T03:50:59.930Z,92.90
2018-01-21T03:51:59.919Z,93.37
2018-01-21T03:52:59.906Z,92.99
2018-01-21T03:53:59.895Z,93.18
2018-01-21T03:54:59.886Z,93.46
2018-01-21T03:55:59.873Z,92.99
2018-01-21T03:56:59.863Z,92.71
2018-01-21T03:57:59.852Z,92.23
2018-01-21T03:58:59.842Z,91.95
2018-01-21T03:59:59.832Z,92.23
2018-01-21T04:00:59.826Z,92.42
2018-01-21T04:01:59.816Z,92.23
2018-01-21T04:02:59.806Z,92.14
2018-01-21T04:03:59.794Z,91.95
2018-01-21T04:04:59.785Z,91.85
2018-01-21T04:05:59.775Z,92.80
2018-01-21T04:06:59.763Z,92.42
2018-01-21T04:07:59.753Z,92.80
2018-01-21T04:08:59.739Z,92.04
2018-01-21T04:09:59.728Z,92.33
2018-01-21T04:10:59.717Z,92.71
2018-01-21T04:11:59.708Z,92.71
2018-01-21T04:12:59.697Z,91.66
2018-01-21T04:13:59.687Z,92.14
2018-01-21T04:14:59.676Z,92.71
2018-01-21T04:15:59.666Z,92.80
2018-01-21T04:16:59.660Z,92.71
2018-01-21T04:17:59.650Z,92.23
2018-01-21T04:18:59.640Z,92.52
2018-01-21T04:19:59.629Z,92.61
2018-01-21T04:20:59.619Z,92.61
2018-01-21T04:21:59.608Z,93.27
2018-01-21T04:22:59.600Z,94.13
2018-01-21T04:23:59.589Z,94.23
2018-01-21T04:24:59.574Z,93.94
2018-01-21T04:25:59.564Z,93.46
2018-01-21T04:26:59.553Z,92.99
2018-01-21T04:27:59.542Z,92.52
2018-01-21T04:28:59.532Z,92.94
2018-01-21T04:29:59.522Z,92.99
2018-01-21T04:30:59.511Z,92.47
2018-01-21T04:31:59.501Z,92.94
2018-01-21T04:32:59.494Z,93.04
2018-01-21T04:33:59.484Z,92.38
2018-01-21T04:34:59.473Z,92.76
2018-01-21T04:35:59.462Z,91.71
2018-01-21T04:36:59.454Z,91.71
2018-01-21T04:37:59.443Z,91.71
2018-01-21T04:38:59.432Z,91.71
2018-01-21T04:39:59.422Z,92.09
2018-01-21T04:40:59.406Z,92.85
2018-01-21T04:41:59.396Z,92.28
2018-01-21T04:42:59.385Z,92.00
2018-01-21T04:43:59.375Z,92.85
2018-01-21T04:44:59.365Z,92.47
2018-01-21T04:45:59.354Z,93.13
2018-01-21T04:46:59.343Z,92.76
2018-01-21T04:47:59.332Z,92.47
2018-01-21T04:48:59.327Z,92.76
2018-01-21T04:49:59.321Z,92.28
2018-01-21T04:50:59.305Z,92.00
2018-01-21T04:51:59.295Z,92.19
2018-01-21T04:52:59.284Z,92.76
2018-01-21T04:53:59.275Z,91.81
2018-01-21T04:54:59.262Z,92.66
2018-01-21T04:55:59.254Z,92.57
2018-01-21T04:56:59.238Z,91.71
2018-01-21T04:57:59.227Z,92.00
2018-01-21T04:58:59.215Z,91.62
2018-01-21T04:59:59.205Z,91.81
2018-01-21T05:00:59.194Z,91.71
2018-01-21T05:01:59.184Z,92.00
2018-01-21T05:02:59.172Z,91.24
2018-01-21T05:03:59.161Z,91.62
2018-01-21T05:04:59.155Z,91.71
2018-01-21T05:05:59.144Z,91.81
2018-01-21T05:06:59.133Z,91.14
2018-01-21T05:07:59.122Z,91.71
2018-01-21T05:08:59.111Z,91.52
2018-01-21T05:09:59.100Z,91.43
2018-01-21T05:10:59.092Z,90.77
2018-01-21T05:11:59.079Z,91.05
2018-01-21T05:12:59.064Z,90.58
2018-01-21T05:13:59.056Z,91.33
2018-01-21T05:14:59.041Z,91.81
2018-01-21T05:15:59.031Z,92.71
2018-01-21T05:16:59.020Z,91.71
2018-01-21T05:17:59.009Z,92.09
2018-01-21T05:18:58.998Z,92.52
2018-01-21T05:19:58.988Z,92.14
2018-01-21T05:20:58.980Z,92.43
2018-01-21T05:21:58.968Z,91.95
2018-01-21T05:22:58.957Z,92.24
2018-01-21T05:23:58.947Z,92.24
2018-01-21T05:24:58.933Z,91.76
2018-01-21T05:25:58.920Z,91.57
2018-01-21T05:26:58.908Z,91.67
2018-01-21T05:27:58.898Z,91.38
2018-01-21T05:28:58.890Z,91.95
2018-01-21T05:29:58.879Z,91.38
2018-01-21T05:30:58.867Z,91.48
2018-01-21T05:31:58.856Z,91.67
2018-01-21T05:32:58.845Z,91.29
2018-01-21T05:33:58.835Z,91.57
2018-01-21T05:34:58.825Z,91.67
2018-01-21T05:35:58.811Z,91.67
2018-01-21T05:36:58.794Z,91.57
2018-01-21T05:37:58.784Z,91.48
2018-01-21T05:38:58.772Z,91.29
2018-01-21T05:39:58.761Z,91.29
2018-01-21T05:40:58.750Z,91.48
2018-01-21T05:41:58.739Z,90.72
2018-01-21T05:42:58.726Z,91.38
2018-01-21T05:43:58.715Z,91.10
2018-01-21T05:44:58.708Z,91.10
2018-01-21T05:45:58.697Z,90.81
2018-01-21T05:46:58.686Z,91.38
2018-01-21T05:47:58.674Z,91.29
2018-01-21T05:48:58.663Z,91.29
2018-01-21T05:49:58.653Z,91.43
2018-01-21T05:50:58.639Z,91.10
2018-01-21T05:51:58.629Z,91.38
2018-01-21T05:52:58.613Z,90.77
2018-01-21T05:53:58.603Z,90.72
2018-01-21T05:54:58.590Z,90.48
2018-01-21T05:55:58.579Z,90.95
2018-01-21T05:56:58.575Z,91.29
2018-01-21T05:57:58.558Z,91.24
2018-01-21T05:58:58.545Z,91.10
2018-01-21T05:59:58.535Z,91.76
2018-01-21T06:00:58.529Z,92.00
2018-01-21T06:01:58.519Z,93.13
2018-01-21T06:02:58.506Z,92.61
2018-01-21T06:03:58.495Z,92.47
2018-01-21T06:04:58.484Z,92.14
2018-01-21T06:05:58.474Z,92.09
2018-01-21T06:06:58.461Z,91.81
2018-01-21T06:07:58.451Z,91.24
2018-01-21T06:08:58.436Z,91.43
2018-01-21T06:09:58.425Z,91.14
2018-01-21T06:10:58.414Z,91.14
2018-01-21T06:11:58.405Z,91.24
2018-01-21T06:12:58.391Z,91.24
2018-01-21T06:13:58.381Z,91.52
2018-01-21T06:14:58.369Z,92.38
2018-01-21T06:15:58.359Z,92.00
2018-01-21T06:16:58.352Z,92.09
2018-01-21T06:17:58.342Z,92.09
2018-01-21T06:18:58.331Z,91.71
2018-01-21T06:19:58.319Z,92.19
2018-01-21T06:20:58.309Z,92.57
2018-01-21T06:21:58.297Z,92.09
2018-01-21T06:22:58.287Z,92.66
2018-01-21T06:23:58.276Z,92.47
2018-01-21T06:24:58.312Z,92.28
2018-01-21T06:25:58.250Z,92.19
2018-01-21T06:26:58.239Z,91.71
2018-01-21T06:27:58.229Z,91.81
2018-01-21T06:28:58.224Z,91.81
2018-01-21T06:29:58.211Z,92.19
2018-01-21T06:30:58.200Z,91.90
2018-01-21T06:31:58.190Z,92.47
2018-01-21T06:32:58.174Z,92.94
2018-01-21T06:33:58.164Z,93.04
2018-01-21T06:34:58.154Z,93.23
2018-01-21T06:35:58.143Z,92.85
2018-01-21T06:36:58.132Z,93.13
2018-01-21T06:37:58.121Z,92.38
2018-01-21T06:38:58.110Z,92.76
2018-01-21T06:39:58.099Z,92.28
2018-01-21T06:40:58.094Z,91.81
2018-01-21T06:41:58.082Z,92.47
2018-01-21T06:42:58.071Z,91.90
2018-01-21T06:43:58.061Z,92.28
2018-01-21T06:44:58.051Z,91.90
2018-01-21T06:45:58.040Z,92.66
2018-01-21T06:46:58.029Z,92.38
2018-01-21T06:47:58.018Z,93.13
2018-01-21T06:48:58.004Z,92.85
2018-01-21T06:49:57.992Z,92.66
2018-01-21T06:50:57.981Z,93.23
2018-01-21T06:51:57.970Z,92.85
2018-01-21T06:52:57.960Z,92.76
2018-01-21T06:53:57.950Z,92.19
2018-01-21T06:54:57.938Z,92.19
2018-01-21T06:55:57.928Z,92.66
2018-01-21T06:56:57.921Z,93.23
2018-01-21T06:57:57.912Z,93.51
2018-01-21T06:58:57.899Z,92.85
2018-01-21T06:59:57.889Z,93.04
2018-01-21T07:00:57.893Z,93.32
2018-01-21T07:01:57.869Z,93.23
2018-01-21T07:02:57.857Z,94.27
2018-01-21T07:03:57.848Z,93.99
2018-01-21T07:04:57.833Z,94.65
2018-01-21T07:05:57.822Z,94.08
2018-01-21T07:06:57.812Z,93.32
2018-01-21T07:07:57.800Z,93.13
2018-01-21T07:08:57.790Z,93.23
2018-01-21T07:09:57.779Z,92.38
2018-01-21T07:10:57.768Z,93.04
2018-01-21T07:11:57.757Z,93.51
2018-01-21T07:12:57.751Z,93.70
2018-01-21T07:13:57.742Z,94.08
2018-01-21T07:14:57.732Z,94.18
2018-01-21T07:15:57.719Z,93.80
2018-01-21T07:16:57.710Z,94.08
2018-01-21T07:17:57.703Z,94.27
2018-01-21T07:18:57.688Z,93.99
2018-01-21T07:19:57.676Z,94.27
2018-01-21T07:20:57.663Z,93.51
2018-01-21T07:21:57.651Z,93.99
2018-01-21T07:22:57.640Z,95.22
2018-01-21T07:23:57.630Z,96.73
2018-01-21T07:24:57.620Z,95.69
2018-01-21T07:25:57.608Z,94.93
2018-01-21T07:26:57.598Z,94.84
2018-01-21T07:27:57.587Z,95.79
2018-01-21T07:28:57.581Z,96.26
2018-01-21T07:29:57.571Z,95.41
2018-01-21T07:30:57.560Z,95.12
2018-01-21T07:31:57.551Z,94.46
2018-01-21T07:32:57.534Z,93.99
2018-01-21T07:33:57.524Z,94.46
2018-01-21T07:34:57.515Z,94.74
2018-01-21T07:35:57.502Z,94.27
2018-01-21T07:36:57.497Z,93.04
2018-01-21T07:37:57.487Z,94.08
2018-01-21T07:38:57.475Z,93.32
2018-01-21T07:39:57.464Z,93.99
2018-01-21T07:40:57.454Z,94.08
2018-01-21T07:41:57.444Z,93.70
2018-01-21T07:42:57.434Z,93.61
2018-01-21T07:43:57.423Z,93.32
2018-01-21T07:44:57.407Z,93.13
2018-01-21T07:45:57.398Z,93.51
2018-01-21T07:46:57.385Z,93.04
2018-01-21T07:47:57.375Z,94.93
2018-01-21T07:48:57.366Z,95.31
2018-01-21T07:49:57.358Z,96.92
2018-01-21T07:50:57.345Z,95.41
2018-01-21T07:51:57.333Z,95.31
2018-01-21T07:52:57.328Z,96.36
2018-01-21T07:53:57.316Z,96.45
2018-01-21T07:54:57.306Z,95.88
2018-01-21T07:55:57.296Z,95.60
2018-01-21T07:56:57.285Z,95.12
2018-01-21T07:57:57.280Z,95.88
2018-01-21T07:58:57.263Z,95.12
2018-01-21T07:59:57.253Z,95.03
2018-01-21T08:00:57.239Z,95.50
2018-01-21T08:01:57.230Z,97.59
2018-01-21T08:02:57.217Z,98.63
2018-01-21T08:03:57.207Z,97.30
2018-01-21T08:04:57.197Z,95.60
2018-01-21T08:05:57.188Z,97.40
2018-01-21T08:06:57.176Z,97.02
2018-01-21T08:07:57.165Z,98.35
2018-01-21T08:08:57.159Z,97.40
2018-01-21T08:09:57.150Z,96.64
2018-01-21T08:10:57.143Z,95.60
2018-01-21T08:11:57.128Z,96.83
2018-01-21T08:12:57.118Z,97.40
2018-01-21T08:13:57.108Z,97.87
2018-01-21T08:14:57.098Z,96.73
2018-01-21T08:15:57.088Z,96.17
2018-01-21T08:16:57.072Z,96.36
2018-01-21T08:17:57.062Z,99.10
2018-01-21T08:18:57.051Z,99.99
2018-01-21T08:19:57.041Z,99.63
2018-01-21T08:20:57.032Z,98.77
2018-01-21T08:21:57.022Z,98.58
2018-01-21T08:22:57.010Z,97.78
2018-01-21T08:23:56.999Z,97.54
2018-01-21T08:24:56.995Z,99.53
2018-01-21T08:25:56.984Z,99.99
2018-01-21T08:26:56.973Z,99.53
2018-01-21T08:27:56.963Z,97.92
2018-01-21T08:28:56.953Z,99.99
2018-01-21T08:29:56.942Z,99.44
2018-01-21T08:30:56.932Z,97.83
2018-01-21T08:31:56.921Z,97.35
2018-01-21T08:32:56.909Z,97.35
2018-01-21T08:33:56.898Z,98.11
2018-01-21T08:34:56.888Z,99.25
2018-01-21T08:35:56.877Z,98.58
2018-01-21T08:36:56.869Z,97.92
2018-01-21T08:37:56.858Z,99.99
2018-01-21T08:38:56.846Z,99.99
2018-01-21T08:39:56.837Z,99.99
2018-01-21T08:40:56.831Z,99.99
2018-01-21T08:41:56.822Z,99.99
2018-01-21T08:42:56.811Z,99.99
2018-01-21T08:43:56.801Z,99.99
2018-01-21T08:44:56.794Z,99.99
2018-01-21T08:45:56.783Z,99.99
2018-01-21T08:46:56.776Z,99.99
2018-01-21T08:47:56.764Z,99.99
2018-01-21T08:48:56.753Z,99.99
2018-01-21T08:49:56.743Z,99.99
2018-01-21T08:50:56.734Z,99.99
2018-01-21T08:51:56.725Z,99.99
2018-01-21T08:52:56.718Z,99.99
2018-01-21T08:53:56.706Z,99.99
2018-01-21T08:54:56.692Z,99.99
2018-01-21T08:55:56.682Z,99.99
2018-01-21T08:56:56.679Z,99.99
2018-01-21T08:57:56.668Z,99.99
2018-01-21T08:58:56.658Z,99.99
2018-01-21T08:59:56.650Z,99.99
2018-01-21T09:00:56.640Z,99.99
2018-01-21T09:01:56.632Z,99.99
2018-01-21T09:02:56.621Z,99.99
2018-01-21T09:03:56.612Z,99.99
2018-01-21T09:04:56.599Z,99.99
2018-01-21T09:05:56.591Z,99.99
2018-01-21T09:06:56.580Z,99.99
2018-01-21T09:07:56.572Z,99.99
2018-01-21T09:08:56.563Z,99.99
2018-01-21T09:09:56.554Z,99.99
2018-01-21T09:10:56.544Z,99.99
2018-01-21T09:11:56.536Z,99.99
2018-01-21T09:12:56.532Z,99.99
2018-01-21T09:13:56.521Z,99.99
2018-01-21T09:14:56.513Z,99.99
2018-01-21T09:15:56.506Z,99.99
2018-01-21T09:16:56.495Z,99.99
2018-01-21T09:17:56.488Z,99.99
2018-01-21T09:18:56.478Z,99.99
2018-01-21T09:19:56.468Z,99.99
2018-01-21T09:20:56.457Z,99.99
2018-01-21T09:21:56.450Z,99.99
2018-01-21T09:22:56.440Z,99.99
2018-01-21T09:23:56.430Z,99.99
2018-01-21T09:24:56.421Z,99.99
2018-01-21T09:25:56.415Z,99.99
2018-01-21T09:26:56.406Z,99.99
2018-01-21T09:27:56.395Z,99.99
2018-01-21T09:28:56.393Z,99.99
2018-01-21T09:29:56.383Z,99.99
2018-01-21T09:30:56.375Z,99.99
2018-01-21T09:31:56.366Z,99.99
2018-01-21T09:32:56.358Z,99.99
2018-01-21T09:33:56.355Z,99.99
2018-01-21T09:34:56.339Z,99.99
2018-01-21T09:35:56.332Z,99.99
2018-01-21T09:36:56.322Z,99.99
2018-01-21T09:37:56.310Z,99.99
2018-01-21T09:38:56.301Z,99.99
2018-01-21T09:39:56.293Z,99.99
2018-01-21T09:40:56.289Z,99.99
2018-01-21T09:41:56.290Z,99.99
2018-01-21T09:42:56.273Z,99.99
2018-01-21T09:43:56.263Z,99.99
2018-01-21T09:44:56.251Z,99.99
2018-01-21T09:45:56.243Z,99.99
2018-01-21T09:46:56.236Z,99.99
2018-01-21T09:47:56.228Z,99.99
2018-01-21T09:48:56.223Z,99.99
2018-01-21T09:49:56.217Z,99.99
2018-01-21T09:50:56.204Z,99.99
2018-01-21T09:51:56.196Z,99.99
2018-01-21T09:52:56.192Z,99.99
2018-01-21T09:53:56.186Z,99.99
2018-01-21T09:54:56.177Z,99.99
2018-01-21T09:55:56.171Z,99.99
2018-01-21T09:56:56.163Z,99.99
2018-01-21T09:57:56.155Z,99.99
2018-01-21T09:58:56.149Z,99.99
2018-01-21T09:59:56.142Z,99.99
2018-01-21T10:00:56.128Z,99.99
2018-01-21T10:01:56.121Z,99.99
2018-01-21T10:02:56.114Z,99.99
2018-01-21T10:03:56.107Z,99.99
2018-01-21T10:04:56.099Z,99.99
2018-01-21T10:05:56.100Z,99.99
2018-01-21T10:06:56.086Z,99.99
2018-01-21T10:07:56.079Z,99.99
2018-01-21T10:08:56.076Z,99.99
2018-01-21T10:09:56.071Z,99.99
2018-01-21T10:10:56.063Z,99.99
2018-01-21T10:11:56.057Z,99.99
2018-01-21T10:12:56.050Z,99.99
2018-01-21T10:13:56.045Z,99.99
2018-01-21T10:14:56.037Z,99.99
2018-01-21T10:15:56.032Z,99.99
2018-01-21T10:16:56.021Z,99.99
2018-01-21T10:17:56.014Z,99.99
2018-01-21T10:18:56.008Z,99.99
2018-01-21T10:19:56.003Z,99.99
2018-01-21T10:20:55.995Z,99.99
2018-01-21T10:21:55.988Z,99.99
2018-01-21T10:22:55.981Z,99.99
2018-01-21T10:23:55.974Z,99.99
2018-01-21T10:24:55.972Z,99.99
2018-01-21T10:25:55.964Z,99.99
2018-01-21T10:26:55.957Z,99.99
2018-01-21T10:27:55.950Z,99.99
2018-01-21T10:28:55.943Z,99.99
2018-01-21T10:29:55.937Z,99.99
2018-01-21T10:30:55.930Z,99.99
2018-01-21T10:31:55.923Z,99.99
2018-01-21T10:32:55.913Z,99.99
2018-01-21T10:33:55.904Z,99.99
2018-01-21T10:34:55.897Z,99.99
2018-01-21T10:35:55.929Z,99.99
2018-01-21T10:36:55.883Z,99.99
2018-01-21T10:37:55.876Z,99.99
2018-01-21T10:38:55.869Z,99.99
2018-01-21T10:39:55.860Z,99.99
2018-01-21T10:40:55.858Z,99.99
2018-01-21T10:41:55.854Z,99.99
2018-01-21T10:42:55.847Z,99.99
2018-01-21T10:43:55.841Z,99.99
2018-01-21T10:44:55.829Z,99.99
2018-01-21T10:45:55.820Z,99.99
2018-01-21T10:46:55.812Z,99.99
2018-01-21T10:47:55.806Z,99.99
2018-01-21T10:48:55.802Z,99.99
2018-01-21T10:49:55.795Z,99.99
2018-01-21T10:50:55.789Z,99.99
2018-01-21T10:51:55.781Z,99.99
2018-01-21T10:52:55.774Z,99.99
2018-01-21T10:53:55.768Z,99.99
2018-01-21T10:54:55.760Z,99.99
2018-01-21T10:55:55.754Z,99.99
2018-01-21T10:56:55.743Z,99.99
2018-01-21T10:57:55.735Z,99.99
2018-01-21T10:58:55.726Z,99.99
2018-01-21T10:59:55.723Z,99.99
2018-01-21T11:00:55.716Z,99.99
2018-01-21T11:01:55.707Z,99.99
2018-01-21T11:02:55.699Z,99.99
2018-01-21T11:03:55.722Z,99.89
2018-01-21T11:04:55.691Z,95.75
2018-01-21T11:05:55.685Z,93.27
2018-01-21T11:06:55.678Z,91.83
2018-01-21T11:07:55.673Z,91.64
2018-01-21T11:08:55.666Z,93.17
2018-01-21T11:09:55.663Z,92.93
2018-01-21T11:10:55.655Z,93.79
2018-01-21T11:11:55.650Z,95.79
2018-01-21T11:12:55.641Z,95.56
2018-01-21T11:13:55.637Z,94.03
2018-01-21T11:14:55.637Z,94.08
2018-01-21T11:15:55.628Z,94.74
2018-01-21T11:16:55.623Z,95.03
2018-01-21T11:17:55.618Z,96.17
2018-01-21T11:18:55.612Z,95.41
2018-01-21T11:19:55.609Z,95.70
2018-01-21T11:20:55.609Z,96.27
2018-01-21T11:21:55.604Z,96.46
2018-01-21T11:22:55.598Z,96.75
2018-01-21T11:23:55.594Z,97.22
2018-01-21T11:24:55.590Z,97.89
2018-01-21T11:25:55.585Z,97.03
2018-01-21T11:26:55.582Z,97.31
2018-01-21T11:27:55.576Z,96.65
2018-01-21T11:28:55.567Z,96.79
2018-01-21T11:29:55.561Z,97.84
2018-01-21T11:30:55.556Z,98.41
2018-01-21T11:31:55.552Z,98.60
2018-01-21T11:32:55.546Z,99.22
2018-01-21T11:33:55.541Z,99.13
2018-01-21T11:34:55.535Z,98.36
2018-01-21T11:35:55.532Z,96.75
2018-01-21T11:36:55.530Z,97.60
2018-01-21T11:37:55.527Z,97.13
2018-01-21T11:38:55.520Z,95.94
2018-01-21T11:39:55.516Z,95.46
2018-01-21T11:40:55.511Z,95.94
2018-01-21T11:41:55.505Z,96.51
2018-01-21T11:42:55.502Z,96.60
2018-01-21T11:43:55.495Z,96.51
2018-01-21T11:44:55.487Z,97.27
2018-01-21T11:45:55.481Z,98.03
2018-01-21T11:46:55.478Z,98.08
2018-01-21T11:47:55.472Z,97.36
2018-01-21T11:48:55.470Z,96.79
2018-01-21T11:49:55.465Z,96.94
2018-01-21T11:50:55.459Z,96.46
2018-01-21T11:51:55.454Z,95.56
2018-01-21T11:52:55.500Z,95.46
2018-01-21T11:53:55.441Z,93.65
2018-01-21T11:54:55.434Z,95.65
2018-01-21T11:55:55.430Z,96.22
2018-01-21T11:56:55.424Z,96.41
2018-01-21T11:57:55.420Z,95.75
2018-01-21T11:58:55.414Z,96.17
2018-01-21T11:59:55.410Z,96.36
2018-01-21T12:00:55.409Z,95.27
2018-01-21T12:01:55.405Z,96.17
2018-01-21T12:02:55.398Z,96.46
2018-01-21T12:03:55.394Z,97.60
2018-01-21T12:04:55.389Z,96.84
2018-01-21T12:05:55.384Z,95.51
2018-01-21T12:06:55.378Z,92.65
2018-01-21T12:07:55.375Z,92.55
2018-01-21T12:08:55.365Z,92.08
2018-01-21T12:09:55.361Z,92.36
2018-01-21T12:10:55.356Z,91.03
2018-01-21T12:11:55.351Z,91.03
2018-01-21T12:12:55.345Z,90.65
2018-01-21T12:13:55.343Z,91.03
2018-01-21T12:14:55.337Z,91.31
2018-01-21T12:15:55.332Z,92.08
2018-01-21T12:16:55.332Z,92.46
2018-01-21T12:17:55.327Z,91.36
2018-01-21T12:18:55.323Z,90.79
2018-01-21T12:19:55.318Z,92.22
2018-01-21T12:20:55.313Z,91.36
2018-01-21T12:21:55.309Z,90.79
2018-01-21T12:22:55.305Z,90.60
2018-01-21T12:23:55.299Z,90.70
2018-01-21T12:24:55.291Z,89.17
2018-01-21T12:25:55.287Z,89.26
2018-01-21T12:26:55.284Z,90.70
2018-01-21T12:27:55.277Z,90.50
2018-01-21T12:28:55.272Z,89.84
2018-01-21T12:29:55.268Z,90.26
2018-01-21T12:30:55.265Z,89.69
2018-01-21T12:31:55.261Z,88.51
2018-01-21T12:32:55.261Z,88.22
2018-01-21T12:33:55.257Z,88.51
2018-01-21T12:34:55.251Z,88.51
2018-01-21T12:35:55.248Z,88.12
2018-01-21T12:36:55.260Z,87.70
2018-01-21T12:37:55.240Z,87.60
2018-01-21T12:38:55.234Z,88.37
2018-01-21T12:39:55.231Z,89.22
2018-01-21T12:40:55.222Z,89.41
2018-01-21T12:41:55.218Z,90.46
2018-01-21T12:42:55.212Z,90.70
2018-01-21T12:43:55.208Z,92.03
2018-01-21T12:44:55.203Z,91.75
2018-01-21T12:45:55.199Z,91.84
2018-01-21T12:46:55.193Z,92.41
2018-01-21T12:47:55.188Z,91.75
2018-01-21T12:48:55.188Z,92.27
2018-01-21T12:49:55.183Z,92.84
2018-01-21T12:50:55.182Z,94.27
2018-01-21T12:51:55.173Z,93.89